KCRW Airport Diagram

We have created a template for each of the higher traffic airports in the vZID airspace. They include KCMH, KCRW, KCVG, KDAY, KIND, KLEX and KSDF. You wil find usefull information including the airport diagram, weather, and specific airport procedures.

KCRW Weather

[Source: ADDS]
METAR
KCRW 181754Z 03006KT 10SM SCT050 29/15 A3010 RMK AO2 SLP182 T02940150 10300 20183 58005 =
KCRW 181721Z 1818/1918 08003KT P6SM SCT050 FM190300 13003KT P6SM SKC FM191300 08005KT P6SM SKC
TAF
KCRW 181721Z 1818/1918 08003KT P6SM SCT050 FM190300 13003KT P6SM SKC FM191300 08005KT P6SM SKC =

KCRW Operations

Calm wind runway up to 10kts: Rw 23

 

JSN Epic template designed by JoomlaShine.com